sensor_id;sensor_type;location;lat;lon;timestamp;temperature;humidity
29575;DHT22;16507;51.046;6.406;2022-10-16T00:01:06;13.00;99.90
29575;DHT22;16507;51.046;6.406;2022-10-16T00:03:32;12.90;99.90
29575;DHT22;16507;51.046;6.406;2022-10-16T00:05:59;13.00;99.90
29575;DHT22;16507;51.046;6.406;2022-10-16T00:08:25;13.10;99.90
29575;DHT22;16507;51.046;6.406;2022-10-16T00:10:51;13.00;99.90
29575;DHT22;16507;51.046;6.406;2022-10-16T00:13:17;13.10;99.90
29575;DHT22;16507;51.046;6.406;2022-10-16T00:15:43;13.00;99.90
29575;DHT22;16507;51.046;6.406;2022-10-16T00:18:10;13.20;99.90
29575;DHT22;16507;51.046;6.406;2022-10-16T00:20:35;13.20;99.90
29575;DHT22;16507;51.046;6.406;2022-10-16T00:23:03;13.00;99.90
29575;DHT22;16507;51.046;6.406;2022-10-16T00:25:29;13.00;99.90
29575;DHT22;16507;51.046;6.406;2022-10-16T00:27:54;13.10;99.90
29575;DHT22;16507;51.046;6.406;2022-10-16T00:30:20;13.00;99.90
29575;DHT22;16507;51.046;6.406;2022-10-16T00:32:46;13.10;99.90
29575;DHT22;16507;51.046;6.406;2022-10-16T00:35:11;13.00;99.90
29575;DHT22;16507;51.046;6.406;2022-10-16T00:37:37;12.90;99.90
29575;DHT22;16507;51.046;6.406;2022-10-16T00:40:03;12.80;99.90
29575;DHT22;16507;51.046;6.406;2022-10-16T00:42:28;12.80;99.90
29575;DHT22;16507;51.046;6.406;2022-10-16T00:44:56;12.80;99.90
29575;DHT22;16507;51.046;6.406;2022-10-16T00:47:43;12.80;99.90
29575;DHT22;16507;51.046;6.406;2022-10-16T00:50:21;12.90;99.90
29575;DHT22;16507;51.046;6.406;2022-10-16T00:52:50;12.80;99.90
29575;DHT22;16507;51.046;6.406;2022-10-16T00:55:17;12.90;99.90
29575;DHT22;16507;51.046;6.406;2022-10-16T00:57:44;12.80;99.90
29575;DHT22;16507;51.046;6.406;2022-10-16T01:00:12;12.80;99.90
29575;DHT22;16507;51.046;6.406;2022-10-16T01:02:38;12.90;99.90
29575;DHT22;16507;51.046;6.406;2022-10-16T01:05:04;12.90;99.90
29575;DHT22;16507;51.046;6.406;2022-10-16T01:07:56;12.90;99.90
29575;DHT22;16507;51.046;6.406;2022-10-16T01:15:51;13.00;99.90
29575;DHT22;16507;51.046;6.406;2022-10-16T01:18:33;13.10;99.90
29575;DHT22;16507;51.046;6.406;2022-10-16T01:21:20;13.00;99.90
29575;DHT22;16507;51.046;6.406;2022-10-16T01:24:06;13.20;99.90
29575;DHT22;16507;51.046;6.406;2022-10-16T01:27:03;13.20;99.90
29575;DHT22;16507;51.046;6.406;2022-10-16T01:32:13;13.20;99.90
29575;DHT22;16507;51.046;6.406;2022-10-16T01:34:47;13.20;99.90
29575;DHT22;16507;51.046;6.406;2022-10-16T01:37:20;13.20;99.90
29575;DHT22;16507;51.046;6.406;2022-10-16T01:39:48;13.20;99.90
29575;DHT22;16507;51.046;6.406;2022-10-16T01:42:21;13.10;99.90
29575;DHT22;16507;51.046;6.406;2022-10-16T01:44:49;13.30;99.90
29575;DHT22;16507;51.046;6.406;2022-10-16T01:47:17;13.20;99.90
29575;DHT22;16507;51.046;6.406;2022-10-16T01:49:47;13.30;99.90
29575;DHT22;16507;51.046;6.406;2022-10-16T01:52:17;13.20;99.90
29575;DHT22;16507;51.046;6.406;2022-10-16T01:54:47;13.20;99.90
29575;DHT22;16507;51.046;6.406;2022-10-16T01:57:14;13.20;99.90
29575;DHT22;16507;51.046;6.406;2022-10-16T01:59:44;13.10;99.90
29575;DHT22;16507;51.046;6.406;2022-10-16T02:02:13;13.10;99.90
29575;DHT22;16507;51.046;6.406;2022-10-16T02:04:44;13.20;99.90
29575;DHT22;16507;51.046;6.406;2022-10-16T02:07:11;13.20;99.90
29575;DHT22;16507;51.046;6.406;2022-10-16T02:09:38;13.10;99.90
29575;DHT22;16507;51.046;6.406;2022-10-16T02:12:15;13.10;99.90
29575;DHT22;16507;51.046;6.406;2022-10-16T02:14:44;13.20;99.90
29575;DHT22;16507;51.046;6.406;2022-10-16T02:17:16;13.20;99.90
29575;DHT22;16507;51.046;6.406;2022-10-16T02:19:42;13.10;99.90
29575;DHT22;16507;51.046;6.406;2022-10-16T02:22:14;13.20;99.90
29575;DHT22;16507;51.046;6.406;2022-10-16T02:24:54;13.00;99.90
29575;DHT22;16507;51.046;6.406;2022-10-16T02:32:58;13.10;99.90
29575;DHT22;16507;51.046;6.406;2022-10-16T02:35:25;13.00;99.90
29575;DHT22;16507;51.046;6.406;2022-10-16T02:37:52;13.10;99.90
29575;DHT22;16507;51.046;6.406;2022-10-16T02:40:19;13.00;99.90
29575;DHT22;16507;51.046;6.406;2022-10-16T02:42:50;13.00;99.90
29575;DHT22;16507;51.046;6.406;2022-10-16T02:45:17;12.90;99.90
29575;DHT22;16507;51.046;6.406;2022-10-16T02:47:43;12.80;99.90
29575;DHT22;16507;51.046;6.406;2022-10-16T02:50:09;12.80;99.90
29575;DHT22;16507;51.046;6.406;2022-10-16T02:52:34;12.80;99.90
29575;DHT22;16507;51.046;6.406;2022-10-16T02:55:00;12.70;99.90
29575;DHT22;16507;51.046;6.406;2022-10-16T02:57:26;12.60;99.90
29575;DHT22;16507;51.046;6.406;2022-10-16T02:59:52;12.70;99.90
29575;DHT22;16507;51.046;6.406;2022-10-16T03:02:17;12.60;99.90
29575;DHT22;16507;51.046;6.406;2022-10-16T03:04:43;12.60;99.90
29575;DHT22;16507;51.046;6.406;2022-10-16T03:07:09;12.50;99.90
29575;DHT22;16507;51.046;6.406;2022-10-16T03:09:35;12.50;99.90
29575;DHT22;16507;51.046;6.406;2022-10-16T03:12:00;12.50;99.90
29575;DHT22;16507;51.046;6.406;2022-10-16T03:14:26;12.40;99.90
29575;DHT22;16507;51.046;6.406;2022-10-16T03:16:52;12.50;99.90
29575;DHT22;16507;51.046;6.406;2022-10-16T03:19:17;12.40;99.90
29575;DHT22;16507;51.046;6.406;2022-10-16T03:21:43;12.40;99.90
29575;DHT22;16507;51.046;6.406;2022-10-16T03:24:09;12.30;99.90
29575;DHT22;16507;51.046;6.406;2022-10-16T03:26:35;12.30;99.90
29575;DHT22;16507;51.046;6.406;2022-10-16T03:29:00;12.40;99.90
29575;DHT22;16507;51.046;6.406;2022-10-16T03:31:31;12.30;99.90
29575;DHT22;16507;51.046;6.406;2022-10-16T03:33:57;12.30;99.90
29575;DHT22;16507;51.046;6.406;2022-10-16T03:36:23;12.40;99.90
29575;DHT22;16507;51.046;6.406;2022-10-16T03:38:48;12.30;99.90
29575;DHT22;16507;51.046;6.406;2022-10-16T03:41:14;12.30;99.90
29575;DHT22;16507;51.046;6.406;2022-10-16T03:43:39;12.30;99.90
29575;DHT22;16507;51.046;6.406;2022-10-16T03:46:05;12.30;99.90
29575;DHT22;16507;51.046;6.406;2022-10-16T03:48:31;12.30;99.90
29575;DHT22;16507;51.046;6.406;2022-10-16T03:50:57;12.30;99.90
29575;DHT22;16507;51.046;6.406;2022-10-16T03:53:23;12.20;99.90
29575;DHT22;16507;51.046;6.406;2022-10-16T03:55:49;12.30;99.90
29575;DHT22;16507;51.046;6.406;2022-10-16T03:58:14;12.20;99.90
29575;DHT22;16507;51.046;6.406;2022-10-16T04:00:44;12.20;99.90
29575;DHT22;16507;51.046;6.406;2022-10-16T04:03:10;12.20;99.90
29575;DHT22;16507;51.046;6.406;2022-10-16T04:05:36;12.20;99.90
29575;DHT22;16507;51.046;6.406;2022-10-16T04:08:02;12.20;99.90
29575;DHT22;16507;51.046;6.406;2022-10-16T04:10:28;12.20;99.90
29575;DHT22;16507;51.046;6.406;2022-10-16T04:12:53;12.20;99.90
29575;DHT22;16507;51.046;6.406;2022-10-16T04:15:22;12.20;99.90
29575;DHT22;16507;51.046;6.406;2022-10-16T04:17:47;12.30;99.90
29575;DHT22;16507;51.046;6.406;2022-10-16T04:20:13;12.30;99.90
29575;DHT22;16507;51.046;6.406;2022-10-16T04:22:38;12.40;99.90
29575;DHT22;16507;51.046;6.406;2022-10-16T04:25:04;12.30;99.90
29575;DHT22;16507;51.046;6.406;2022-10-16T04:27:30;12.40;99.90
29575;DHT22;16507;51.046;6.406;2022-10-16T04:29:57;12.30;99.90
29575;DHT22;16507;51.046;6.406;2022-10-16T04:32:23;12.40;99.90
29575;DHT22;16507;51.046;6.406;2022-10-16T04:34:49;12.30;99.90
29575;DHT22;16507;51.046;6.406;2022-10-16T04:37:14;12.30;99.90
29575;DHT22;16507;51.046;6.406;2022-10-16T04:39:40;12.30;99.90
29575;DHT22;16507;51.046;6.406;2022-10-16T04:42:05;12.30;99.90
29575;DHT22;16507;51.046;6.406;2022-10-16T04:44:31;12.40;99.90
29575;DHT22;16507;51.046;6.406;2022-10-16T04:46:56;12.40;99.90
29575;DHT22;16507;51.046;6.406;2022-10-16T04:49:22;12.40;99.90
29575;DHT22;16507;51.046;6.406;2022-10-16T04:51:47;12.40;99.90
29575;DHT22;16507;51.046;6.406;2022-10-16T04:54:13;12.40;99.90
29575;DHT22;16507;51.046;6.406;2022-10-16T04:56:39;12.40;99.90
29575;DHT22;16507;51.046;6.406;2022-10-16T04:59:15;12.40;99.90
29575;DHT22;16507;51.046;6.406;2022-10-16T05:01:41;12.50;99.90
29575;DHT22;16507;51.046;6.406;2022-10-16T05:04:07;12.50;99.90
29575;DHT22;16507;51.046;6.406;2022-10-16T05:06:33;12.50;99.90
29575;DHT22;16507;51.046;6.406;2022-10-16T05:08:58;12.50;99.90
29575;DHT22;16507;51.046;6.406;2022-10-16T05:11:24;12.40;99.90
29575;DHT22;16507;51.046;6.406;2022-10-16T05:13:50;12.40;99.90
29575;DHT22;16507;51.046;6.406;2022-10-16T05:16:15;12.50;99.90
29575;DHT22;16507;51.046;6.406;2022-10-16T05:18:41;12.50;99.90
29575;DHT22;16507;51.046;6.406;2022-10-16T05:21:07;12.50;99.90
29575;DHT22;16507;51.046;6.406;2022-10-16T05:23:33;12.50;99.90
29575;DHT22;16507;51.046;6.406;2022-10-16T05:25:59;12.50;99.90
29575;DHT22;16507;51.046;6.406;2022-10-16T05:28:26;12.50;99.90
29575;DHT22;16507;51.046;6.406;2022-10-16T05:30:51;12.40;99.90
29575;DHT22;16507;51.046;6.406;2022-10-16T05:33:20;12.30;99.90
29575;DHT22;16507;51.046;6.406;2022-10-16T05:35:45;12.30;99.90
29575;DHT22;16507;51.046;6.406;2022-10-16T05:38:12;12.30;99.90
29575;DHT22;16507;51.046;6.406;2022-10-16T05:40:37;12.20;99.90
29575;DHT22;16507;51.046;6.406;2022-10-16T05:43:03;12.30;99.90
29575;DHT22;16507;51.046;6.406;2022-10-16T05:45:29;12.40;99.90
29575;DHT22;16507;51.046;6.406;2022-10-16T05:47:54;12.30;99.90
29575;DHT22;16507;51.046;6.406;2022-10-16T05:50:20;12.30;99.90
29575;DHT22;16507;51.046;6.406;2022-10-16T05:52:45;12.40;99.90
29575;DHT22;16507;51.046;6.406;2022-10-16T05:55:11;12.40;99.90
29575;DHT22;16507;51.046;6.406;2022-10-16T05:57:37;12.30;99.90
29575;DHT22;16507;51.046;6.406;2022-10-16T06:00:03;12.30;99.90
29575;DHT22;16507;51.046;6.406;2022-10-16T06:02:29;12.30;99.90
29575;DHT22;16507;51.046;6.406;2022-10-16T06:04:55;12.20;99.90
29575;DHT22;16507;51.046;6.406;2022-10-16T06:07:21;12.20;99.90
29575;DHT22;16507;51.046;6.406;2022-10-16T06:09:50;12.20;99.90
29575;DHT22;16507;51.046;6.406;2022-10-16T06:12:16;12.20;99.90
29575;DHT22;16507;51.046;6.406;2022-10-16T06:14:42;12.20;99.90
29575;DHT22;16507;51.046;6.406;2022-10-16T06:17:08;12.10;99.90
29575;DHT22;16507;51.046;6.406;2022-10-16T06:19:33;12.20;99.90
29575;DHT22;16507;51.046;6.406;2022-10-16T06:21:59;12.20;99.90
29575;DHT22;16507;51.046;6.406;2022-10-16T06:24:25;12.20;99.90
29575;DHT22;16507;51.046;6.406;2022-10-16T06:26:51;12.10;99.90
29575;DHT22;16507;51.046;6.406;2022-10-16T06:29:17;12.10;99.90
29575;DHT22;16507;51.046;6.406;2022-10-16T06:31:42;12.10;99.90
29575;DHT22;16507;51.046;6.406;2022-10-16T06:34:09;12.20;99.90
29575;DHT22;16507;51.046;6.406;2022-10-16T06:36:37;12.20;99.90
29575;DHT22;16507;51.046;6.406;2022-10-16T06:39:04;12.30;99.90
29575;DHT22;16507;51.046;6.406;2022-10-16T06:41:30;12.40;99.90
29575;DHT22;16507;51.046;6.406;2022-10-16T06:43:56;12.50;99.90
29575;DHT22;16507;51.046;6.406;2022-10-16T06:46:23;12.60;99.90
29575;DHT22;16507;51.046;6.406;2022-10-16T06:48:49;12.70;99.90
29575;DHT22;16507;51.046;6.406;2022-10-16T06:51:18;12.80;99.90
29575;DHT22;16507;51.046;6.406;2022-10-16T06:53:46;12.90;99.90
29575;DHT22;16507;51.046;6.406;2022-10-16T06:56:23;12.90;99.90
29575;DHT22;16507;51.046;6.406;2022-10-16T06:58:50;13.10;99.90
29575;DHT22;16507;51.046;6.406;2022-10-16T07:01:18;13.10;99.90
29575;DHT22;16507;51.046;6.406;2022-10-16T07:03:45;13.10;99.90
29575;DHT22;16507;51.046;6.406;2022-10-16T07:06:13;13.10;99.90
29575;DHT22;16507;51.046;6.406;2022-10-16T07:08:41;13.20;99.90
29575;DHT22;16507;51.046;6.406;2022-10-16T07:11:10;13.20;99.90
29575;DHT22;16507;51.046;6.406;2022-10-16T07:13:37;13.10;99.90
29575;DHT22;16507;51.046;6.406;2022-10-16T07:16:10;13.20;99.90
29575;DHT22;16507;51.046;6.406;2022-10-16T07:18:36;13.20;99.90
29575;DHT22;16507;51.046;6.406;2022-10-16T07:21:09;13.30;99.90
29575;DHT22;16507;51.046;6.406;2022-10-16T07:23:36;13.30;99.90
29575;DHT22;16507;51.046;6.406;2022-10-16T07:26:01;13.40;99.90
29575;DHT22;16507;51.046;6.406;2022-10-16T07:28:28;13.50;99.90
29575;DHT22;16507;51.046;6.406;2022-10-16T07:30:54;13.30;99.90
29575;DHT22;16507;51.046;6.406;2022-10-16T07:33:20;13.30;99.90
29575;DHT22;16507;51.046;6.406;2022-10-16T07:35:53;13.30;99.90
29575;DHT22;16507;51.046;6.406;2022-10-16T07:38:19;13.30;99.90
29575;DHT22;16507;51.046;6.406;2022-10-16T07:40:45;13.40;99.90
29575;DHT22;16507;51.046;6.406;2022-10-16T07:43:11;13.50;99.90
29575;DHT22;16507;51.046;6.406;2022-10-16T07:45:37;13.70;99.90
29575;DHT22;16507;51.046;6.406;2022-10-16T07:48:03;13.90;99.90
29575;DHT22;16507;51.046;6.406;2022-10-16T07:50:28;14.00;99.90
29575;DHT22;16507;51.046;6.406;2022-10-16T07:52:54;14.20;99.90
29575;DHT22;16507;51.046;6.406;2022-10-16T07:55:19;14.20;99.90
29575;DHT22;16507;51.046;6.406;2022-10-16T07:57:45;14.40;99.90
29575;DHT22;16507;51.046;6.406;2022-10-16T08:00:11;14.40;99.90
29575;DHT22;16507;51.046;6.406;2022-10-16T08:02:40;14.60;99.90
29575;DHT22;16507;51.046;6.406;2022-10-16T08:05:06;14.60;99.90
29575;DHT22;16507;51.046;6.406;2022-10-16T08:07:32;14.80;99.90
29575;DHT22;16507;51.046;6.406;2022-10-16T08:09:58;14.90;99.90
29575;DHT22;16507;51.046;6.406;2022-10-16T08:12:27;15.00;99.90
29575;DHT22;16507;51.046;6.406;2022-10-16T08:14:53;15.00;99.90
29575;DHT22;16507;51.046;6.406;2022-10-16T08:17:18;15.20;99.90
29575;DHT22;16507;51.046;6.406;2022-10-16T08:19:45;15.30;99.90
29575;DHT22;16507;51.046;6.406;2022-10-16T08:22:11;15.40;99.90
29575;DHT22;16507;51.046;6.406;2022-10-16T08:24:37;15.50;99.90
29575;DHT22;16507;51.046;6.406;2022-10-16T08:27:02;15.50;99.90
29575;DHT22;16507;51.046;6.406;2022-10-16T08:29:28;15.50;99.90
29575;DHT22;16507;51.046;6.406;2022-10-16T08:31:54;15.60;99.90
29575;DHT22;16507;51.046;6.406;2022-10-16T08:34:19;15.70;99.90
29575;DHT22;16507;51.046;6.406;2022-10-16T08:36:45;15.80;99.90
29575;DHT22;16507;51.046;6.406;2022-10-16T08:39:10;15.80;99.90
29575;DHT22;16507;51.046;6.406;2022-10-16T08:48:06;16.10;99.90
29575;DHT22;16507;51.046;6.406;2022-10-16T08:50:40;16.20;99.90
29575;DHT22;16507;51.046;6.406;2022-10-16T08:53:07;16.30;99.90
29575;DHT22;16507;51.046;6.406;2022-10-16T08:55:51;16.30;99.90
29575;DHT22;16507;51.046;6.406;2022-10-16T08:58:22;16.40;99.90
29575;DHT22;16507;51.046;6.406;2022-10-16T09:00:53;16.50;99.90
29575;DHT22;16507;51.046;6.406;2022-10-16T09:03:30;16.70;99.90
29575;DHT22;16507;51.046;6.406;2022-10-16T09:06:16;16.60;99.90
29575;DHT22;16507;51.046;6.406;2022-10-16T09:11:59;16.90;99.90
29575;DHT22;16507;51.046;6.406;2022-10-16T09:17:26;17.00;99.90
29575;DHT22;16507;51.046;6.406;2022-10-16T09:20:18;17.20;99.90
29575;DHT22;16507;51.046;6.406;2022-10-16T09:22:40;17.20;99.90
29575;DHT22;16507;51.046;6.406;2022-10-16T09:25:21;17.40;99.90
29575;DHT22;16507;51.046;6.406;2022-10-16T09:27:48;17.50;99.90
29575;DHT22;16507;51.046;6.406;2022-10-16T09:30:17;17.50;99.90
29575;DHT22;16507;51.046;6.406;2022-10-16T09:32:45;17.60;99.90
29575;DHT22;16507;51.046;6.406;2022-10-16T09:35:22;17.60;99.90
29575;DHT22;16507;51.046;6.406;2022-10-16T09:37:50;17.70;99.90
29575;DHT22;16507;51.046;6.406;2022-10-16T09:40:31;17.70;99.90
29575;DHT22;16507;51.046;6.406;2022-10-16T09:43:26;17.80;99.90
29575;DHT22;16507;51.046;6.406;2022-10-16T09:46:08;17.80;99.90
29575;DHT22;16507;51.046;6.406;2022-10-16T09:48:49;17.90;99.90
29575;DHT22;16507;51.046;6.406;2022-10-16T09:51:35;17.60;99.90
29575;DHT22;16507;51.046;6.406;2022-10-16T09:56:37;17.70;99.90
29575;DHT22;16507;51.046;6.406;2022-10-16T09:59:18;17.90;99.90
29575;DHT22;16507;51.046;6.406;2022-10-16T10:01:49;17.90;99.90
29575;DHT22;16507;51.046;6.406;2022-10-16T10:04:16;17.70;99.90
29575;DHT22;16507;51.046;6.406;2022-10-16T10:09:25;17.70;99.90
29575;DHT22;16507;51.046;6.406;2022-10-16T10:11:57;17.60;99.90
29575;DHT22;16507;51.046;6.406;2022-10-16T10:14:44;17.60;99.90
29575;DHT22;16507;51.046;6.406;2022-10-16T10:17:15;17.40;99.90
29575;DHT22;16507;51.046;6.406;2022-10-16T10:20:18;17.20;99.90
29575;DHT22;16507;51.046;6.406;2022-10-16T10:22:46;17.10;99.90
29575;DHT22;16507;51.046;6.406;2022-10-16T10:27:49;17.50;99.90
29575;DHT22;16507;51.046;6.406;2022-10-16T10:44:34;18.90;99.90
29575;DHT22;16507;51.046;6.406;2022-10-16T10:47:24;18.70;99.90
29575;DHT22;16507;51.046;6.406;2022-10-16T10:50:05;18.40;99.90
29575;DHT22;16507;51.046;6.406;2022-10-16T11:04:01;18.90;99.90
29575;DHT22;16507;51.046;6.406;2022-10-16T11:06:36;18.70;99.90
29575;DHT22;16507;51.046;6.406;2022-10-16T11:09:21;18.70;99.90
29575;DHT22;16507;51.046;6.406;2022-10-16T11:12:19;18.80;99.90
29575;DHT22;16507;51.046;6.406;2022-10-16T11:15:01;19.10;99.90
29575;DHT22;16507;51.046;6.406;2022-10-16T11:17:33;19.20;99.90
29575;DHT22;16507;51.046;6.406;2022-10-16T11:20:26;19.30;99.90
29575;DHT22;16507;51.046;6.406;2022-10-16T11:23:06;19.20;99.90
29575;DHT22;16507;51.046;6.406;2022-10-16T11:25:33;19.10;99.90
29575;DHT22;16507;51.046;6.406;2022-10-16T11:30:52;19.10;99.90
29575;DHT22;16507;51.046;6.406;2022-10-16T11:36:26;19.40;99.90
29575;DHT22;16507;51.046;6.406;2022-10-16T11:39:23;19.50;99.90
29575;DHT22;16507;51.046;6.406;2022-10-16T11:42:11;19.60;99.90
29575;DHT22;16507;51.046;6.406;2022-10-16T11:45:36;19.80;99.90
29575;DHT22;16507;51.046;6.406;2022-10-16T11:55:53;19.60;99.90
29575;DHT22;16507;51.046;6.406;2022-10-16T12:06:13;19.90;99.90
29575;DHT22;16507;51.046;6.406;2022-10-16T12:08:43;19.90;99.90
29575;DHT22;16507;51.046;6.406;2022-10-16T12:11:37;20.20;99.90
29575;DHT22;16507;51.046;6.406;2022-10-16T12:16:56;19.90;99.90
29575;DHT22;16507;51.046;6.406;2022-10-16T12:19:23;20.30;99.90
29575;DHT22;16507;51.046;6.406;2022-10-16T12:21:51;20.30;99.90
29575;DHT22;16507;51.046;6.406;2022-10-16T12:24:36;20.50;99.90
29575;DHT22;16507;51.046;6.406;2022-10-16T12:27:04;20.90;88.10
29575;DHT22;16507;51.046;6.406;2022-10-16T12:29:41;21.00;96.00
29575;DHT22;16507;51.046;6.406;2022-10-16T12:32:29;20.70;87.40
29575;DHT22;16507;51.046;6.406;2022-10-16T12:34:55;20.60;96.40
29575;DHT22;16507;51.046;6.406;2022-10-16T12:37:36;20.30;99.90
29575;DHT22;16507;51.046;6.406;2022-10-16T12:40:28;20.20;99.90
29575;DHT22;16507;51.046;6.406;2022-10-16T12:42:54;20.00;99.90
29575;DHT22;16507;51.046;6.406;2022-10-16T12:45:29;19.90;99.90
29575;DHT22;16507;51.046;6.406;2022-10-16T12:47:56;20.00;99.90
29575;DHT22;16507;51.046;6.406;2022-10-16T12:52:49;20.60;99.90
29575;DHT22;16507;51.046;6.406;2022-10-16T12:55:19;21.00;93.00
29575;DHT22;16507;51.046;6.406;2022-10-16T13:00:45;20.60;90.80
29575;DHT22;16507;51.046;6.406;2022-10-16T13:20:16;21.20;68.30
29575;DHT22;16507;51.046;6.406;2022-10-16T13:22:57;21.30;71.90
29575;DHT22;16507;51.046;6.406;2022-10-16T13:28:11;21.50;62.10
29575;DHT22;16507;51.046;6.406;2022-10-16T13:30:51;21.70;63.90
29575;DHT22;16507;51.046;6.406;2022-10-16T13:33:32;21.30;74.50
29575;DHT22;16507;51.046;6.406;2022-10-16T13:35:59;21.00;74.40
29575;DHT22;16507;51.046;6.406;2022-10-16T13:38:26;21.30;69.90
29575;DHT22;16507;51.046;6.406;2022-10-16T13:43:56;20.90;60.00
29575;DHT22;16507;51.046;6.406;2022-10-16T13:46:25;20.20;68.20
29575;DHT22;16507;51.046;6.406;2022-10-16T13:49:19;20.20;73.20
29575;DHT22;16507;51.046;6.406;2022-10-16T13:51:56;20.10;91.90
29575;DHT22;16507;51.046;6.406;2022-10-16T13:54:23;20.10;78.20
29575;DHT22;16507;51.046;6.406;2022-10-16T13:56:49;20.10;95.10
29575;DHT22;16507;51.046;6.406;2022-10-16T13:59:33;19.90;99.90
29575;DHT22;16507;51.046;6.406;2022-10-16T14:02:00;19.80;99.00
29575;DHT22;16507;51.046;6.406;2022-10-16T14:04:32;19.90;99.90
29575;DHT22;16507;51.046;6.406;2022-10-16T14:06:58;20.00;97.40
29575;DHT22;16507;51.046;6.406;2022-10-16T14:09:29;19.90;92.80
29575;DHT22;16507;51.046;6.406;2022-10-16T14:11:59;19.90;99.90
29575;DHT22;16507;51.046;6.406;2022-10-16T14:14:27;20.10;99.90
29575;DHT22;16507;51.046;6.406;2022-10-16T14:16:58;20.00;99.90
29575;DHT22;16507;51.046;6.406;2022-10-16T14:19:28;19.80;99.90
29575;DHT22;16507;51.046;6.406;2022-10-16T14:21:56;19.60;99.90
29575;DHT22;16507;51.046;6.406;2022-10-16T14:24:31;19.30;99.90
29575;DHT22;16507;51.046;6.406;2022-10-16T14:26:58;19.20;99.90
29575;DHT22;16507;51.046;6.406;2022-10-16T14:29:25;19.20;99.90
29575;DHT22;16507;51.046;6.406;2022-10-16T14:32:03;19.30;99.90
29575;DHT22;16507;51.046;6.406;2022-10-16T14:34:34;19.30;99.90
29575;DHT22;16507;51.046;6.406;2022-10-16T14:37:06;19.30;99.90
29575;DHT22;16507;51.046;6.406;2022-10-16T14:39:34;19.30;99.90
29575;DHT22;16507;51.046;6.406;2022-10-16T14:42:00;19.30;99.90
29575;DHT22;16507;51.046;6.406;2022-10-16T14:44:30;19.20;99.90
29575;DHT22;16507;51.046;6.406;2022-10-16T14:46:56;19.20;99.90
29575;DHT22;16507;51.046;6.406;2022-10-16T14:49:23;19.10;99.90
29575;DHT22;16507;51.046;6.406;2022-10-16T14:51:49;19.10;99.90
29575;DHT22;16507;51.046;6.406;2022-10-16T14:54:17;19.10;99.90
29575;DHT22;16507;51.046;6.406;2022-10-16T14:56:51;19.00;99.90
29575;DHT22;16507;51.046;6.406;2022-10-16T14:59:29;18.90;99.90
29575;DHT22;16507;51.046;6.406;2022-10-16T15:01:55;18.70;99.90
29575;DHT22;16507;51.046;6.406;2022-10-16T15:04:21;18.40;99.90
29575;DHT22;16507;51.046;6.406;2022-10-16T15:06:47;18.40;99.90
29575;DHT22;16507;51.046;6.406;2022-10-16T15:09:13;18.30;99.90
29575;DHT22;16507;51.046;6.406;2022-10-16T15:11:39;18.30;99.90
29575;DHT22;16507;51.046;6.406;2022-10-16T15:14:05;18.30;99.90
29575;DHT22;16507;51.046;6.406;2022-10-16T15:16:31;18.30;99.90
29575;DHT22;16507;51.046;6.406;2022-10-16T15:18:57;18.30;99.90
29575;DHT22;16507;51.046;6.406;2022-10-16T15:21:29;18.20;99.90
29575;DHT22;16507;51.046;6.406;2022-10-16T15:23:55;18.20;99.90
29575;DHT22;16507;51.046;6.406;2022-10-16T15:26:26;18.20;99.90
29575;DHT22;16507;51.046;6.406;2022-10-16T15:28:52;18.10;99.90
29575;DHT22;16507;51.046;6.406;2022-10-16T15:31:18;18.00;99.90
29575;DHT22;16507;51.046;6.406;2022-10-16T15:33:44;18.00;99.90
29575;DHT22;16507;51.046;6.406;2022-10-16T15:36:13;17.90;99.90
29575;DHT22;16507;51.046;6.406;2022-10-16T15:38:38;17.80;99.90
29575;DHT22;16507;51.046;6.406;2022-10-16T15:41:04;17.80;99.90
29575;DHT22;16507;51.046;6.406;2022-10-16T15:43:30;17.80;99.90
29575;DHT22;16507;51.046;6.406;2022-10-16T15:46:04;17.70;99.90
29575;DHT22;16507;51.046;6.406;2022-10-16T15:48:31;17.60;99.90
29575;DHT22;16507;51.046;6.406;2022-10-16T15:50:57;17.60;99.90
29575;DHT22;16507;51.046;6.406;2022-10-16T15:53:22;17.50;99.90
29575;DHT22;16507;51.046;6.406;2022-10-16T15:55:48;17.50;99.90
29575;DHT22;16507;51.046;6.406;2022-10-16T15:58:14;17.40;99.90
29575;DHT22;16507;51.046;6.406;2022-10-16T16:00:40;17.30;99.90
29575;DHT22;16507;51.046;6.406;2022-10-16T16:03:05;17.20;99.90
29575;DHT22;16507;51.046;6.406;2022-10-16T16:05:31;17.10;99.90
29575;DHT22;16507;51.046;6.406;2022-10-16T16:07:58;17.10;99.90
29575;DHT22;16507;51.046;6.406;2022-10-16T16:10:24;16.90;99.90
29575;DHT22;16507;51.046;6.406;2022-10-16T16:12:50;16.90;99.90
29575;DHT22;16507;51.046;6.406;2022-10-16T16:15:21;16.80;99.90
29575;DHT22;16507;51.046;6.406;2022-10-16T16:17:48;16.70;99.90
29575;DHT22;16507;51.046;6.406;2022-10-16T16:20:14;16.70;99.90
29575;DHT22;16507;51.046;6.406;2022-10-16T16:22:39;16.60;99.90
29575;DHT22;16507;51.046;6.406;2022-10-16T16:25:05;16.50;99.90
29575;DHT22;16507;51.046;6.406;2022-10-16T16:27:31;16.40;99.90
29575;DHT22;16507;51.046;6.406;2022-10-16T16:30:00;16.40;99.90
29575;DHT22;16507;51.046;6.406;2022-10-16T16:32:25;16.30;99.90
29575;DHT22;16507;51.046;6.406;2022-10-16T16:34:51;16.20;99.90
29575;DHT22;16507;51.046;6.406;2022-10-16T16:37:17;16.10;99.90
29575;DHT22;16507;51.046;6.406;2022-10-16T16:39:42;16.00;99.90
29575;DHT22;16507;51.046;6.406;2022-10-16T16:42:08;16.00;99.90
29575;DHT22;16507;51.046;6.406;2022-10-16T16:44:35;16.00;99.90
29575;DHT22;16507;51.046;6.406;2022-10-16T16:47:02;15.90;99.90
29575;DHT22;16507;51.046;6.406;2022-10-16T16:49:28;15.80;99.90
29575;DHT22;16507;51.046;6.406;2022-10-16T16:51:53;15.80;99.90
29575;DHT22;16507;51.046;6.406;2022-10-16T16:54:19;15.80;99.90
29575;DHT22;16507;51.046;6.406;2022-10-16T16:56:45;15.70;99.90
29575;DHT22;16507;51.046;6.406;2022-10-16T16:59:13;15.70;99.90
29575;DHT22;16507;51.046;6.406;2022-10-16T17:01:40;15.70;99.90
29575;DHT22;16507;51.046;6.406;2022-10-16T17:04:06;15.60;99.90
29575;DHT22;16507;51.046;6.406;2022-10-16T17:06:31;15.60;99.90
29575;DHT22;16507;51.046;6.406;2022-10-16T17:08:58;15.60;99.90
29575;DHT22;16507;51.046;6.406;2022-10-16T17:11:26;15.60;99.90
29575;DHT22;16507;51.046;6.406;2022-10-16T17:13:54;15.60;99.90
29575;DHT22;16507;51.046;6.406;2022-10-16T17:16:25;15.70;99.90
29575;DHT22;16507;51.046;6.406;2022-10-16T17:18:51;15.70;99.90
29575;DHT22;16507;51.046;6.406;2022-10-16T17:21:18;15.70;99.90
29575;DHT22;16507;51.046;6.406;2022-10-16T17:23:44;15.70;99.90
29575;DHT22;16507;51.046;6.406;2022-10-16T17:26:15;15.70;99.90
29575;DHT22;16507;51.046;6.406;2022-10-16T17:28:41;15.70;99.90
29575;DHT22;16507;51.046;6.406;2022-10-16T17:31:09;15.70;99.90
29575;DHT22;16507;51.046;6.406;2022-10-16T17:33:35;15.70;99.90
29575;DHT22;16507;51.046;6.406;2022-10-16T17:36:01;15.80;99.90